createdAt,value
2023-05-08T00:02:11.904Z,100943.03
2023-05-08T00:05:14.626Z,100946.19
2023-05-08T00:08:18.912Z,100938.22
2023-05-08T00:11:21.557Z,100944.19
2023-05-08T00:14:23.711Z,100939.56
2023-05-08T00:17:26.514Z,100933.13
2023-05-08T00:20:28.969Z,100935.97
2023-05-08T00:23:31.450Z,100947.62
2023-05-08T00:26:33.756Z,100937.50
2023-05-08T00:29:36.393Z,100942.97
2023-05-08T00:32:38.603Z,100935.37
2023-05-08T00:35:42.890Z,100939.28
2023-05-08T00:38:45.094Z,100945.22
2023-05-08T00:41:47.735Z,100944.94
2023-05-08T00:44:49.948Z,100937.12
2023-05-08T00:47:52.693Z,100943.47
2023-05-08T00:50:55.819Z,100941.00
2023-05-08T00:53:59.666Z,100943.19
2023-05-08T00:57:02.893Z,100946.22
2023-05-08T01:00:06.254Z,100944.31
2023-05-08T01:03:09.445Z,100948.94
2023-05-08T01:06:12.264Z,100947.72
2023-05-08T01:09:14.478Z,100952.37
2023-05-08T01:12:30.670Z,100955.09
2023-05-08T01:15:50.902Z,100957.19
2023-05-08T01:19:16.470Z,100965.56
2023-05-08T01:22:43.986Z,100970.00
2023-05-08T01:26:17.207Z,100976.41
2023-05-08T01:29:57.089Z,100972.66
2023-05-08T01:33:14.313Z,100973.84
2023-05-08T01:36:46.743Z,100975.25
2023-05-08T01:39:55.264Z,100978.84
2023-05-08T01:43:08.074Z,100979.41
2023-05-08T01:46:16.819Z,100985.47
2023-05-08T01:49:26.302Z,100984.81
2023-05-08T01:52:35.400Z,100986.72
2023-05-08T01:55:40.244Z,100991.34
2023-05-08T01:58:44.554Z,100989.50
2023-05-08T02:01:48.183Z,100991.53
2023-05-08T02:04:53.580Z,100988.59
2023-05-08T02:07:57.133Z,100987.84
2023-05-08T02:11:00.929Z,100993.81
2023-05-08T02:14:04.880Z,100994.41
2023-05-08T02:17:10.715Z,101000.28
2023-05-08T02:20:15.325Z,101000.38
2023-05-08T02:23:19.478Z,101005.00
2023-05-08T02:26:23.355Z,100993.16
2023-05-08T02:29:27.274Z,101008.84
2023-05-08T02:32:31.017Z,101012.81
2023-05-08T02:35:35.332Z,101006.44
2023-05-08T02:38:42.050Z,101005.31
2023-05-08T02:41:45.264Z,100995.75
2023-05-08T02:44:47.566Z,101001.22
2023-05-08T02:48:14.800Z,101003.31
2023-05-08T02:51:39.601Z,101000.19
2023-05-08T02:55:15.005Z,101001.50
2023-05-08T02:58:24.925Z,101014.38
2023-05-08T03:01:42.130Z,101007.47
2023-05-08T03:04:49.778Z,101013.78
2023-05-08T03:07:55.795Z,101020.19
2023-05-08T03:11:01.747Z,101017.22
2023-05-08T03:14:09.877Z,101020.41
2023-05-08T03:17:16.434Z,101019.16
2023-05-08T03:20:21.200Z,101021.25
2023-05-08T03:23:26.521Z,101019.22
2023-05-08T03:26:29.859Z,101014.44
2023-05-08T03:29:33.907Z,101017.66
2023-05-08T03:32:37.705Z,101014.78
2023-05-08T03:35:40.192Z,101021.84
2023-05-08T03:38:43.402Z,101014.69
2023-05-08T03:41:45.968Z,101015.38
2023-05-08T03:44:51.419Z,101031.66
2023-05-08T03:47:54.186Z,101021.56
2023-05-08T03:50:58.580Z,101025.47
2023-05-08T03:54:01.028Z,101034.50
2023-05-08T03:57:03.923Z,101024.19
2023-05-08T04:00:19.472Z,101020.13
2023-05-08T04:03:33.262Z,101030.53
2023-05-08T04:06:51.513Z,101031.31
2023-05-08T04:10:06.758Z,101036.87
2023-05-08T04:13:14.161Z,101042.28
2023-05-08T04:16:21.900Z,101042.62
2023-05-08T04:19:26.833Z,101039.03
2023-05-08T04:22:32.409Z,101052.25
2023-05-08T04:25:38.153Z,101050.28
2023-05-08T04:28:41.689Z,101053.91
2023-05-08T04:31:44.808Z,101062.22
2023-05-08T04:34:47.461Z,101066.56
2023-05-08T04:37:49.700Z,101073.47
2023-05-08T04:40:52.496Z,101069.09
2023-05-08T04:43:54.999Z,101073.44
2023-05-08T04:46:57.563Z,101076.38
2023-05-08T04:50:02.698Z,101091.16
2023-05-08T04:53:06.858Z,101090.41
2023-05-08T04:56:09.160Z,101092.66
2023-05-08T04:59:12.486Z,101094.81
2023-05-08T05:02:15.497Z,101097.87
2023-05-08T05:05:18.932Z,101096.09
2023-05-08T05:08:21.865Z,101110.97
2023-05-08T05:11:25.060Z,101106.28
2023-05-08T05:14:28.065Z,101105.94
2023-05-08T05:17:31.736Z,101109.97
2023-05-08T05:20:34.601Z,101110.97
2023-05-08T05:23:37.165Z,101102.78
2023-05-08T05:26:39.514Z,101103.28
2023-05-08T05:29:43.356Z,101114.75
2023-05-08T05:32:46.063Z,101113.66
2023-05-08T05:35:48.871Z,101122.66
2023-05-08T05:38:51.153Z,101117.81
2023-05-08T05:41:53.910Z,101111.03
2023-05-08T05:44:57.061Z,101123.78
2023-05-08T05:48:00.108Z,101123.25
2023-05-08T05:51:03.562Z,101132.44
2023-05-08T05:54:06.441Z,101130.53
2023-05-08T05:57:10.233Z,101137.00
2023-05-08T06:00:13.954Z,101133.88
2023-05-08T06:03:16.374Z,101140.81
2023-05-08T06:06:19.121Z,101131.22
2023-05-08T06:09:22.924Z,101134.28
2023-05-08T06:12:28.517Z,101131.91
2023-05-08T06:15:31.529Z,101128.66
2023-05-08T06:18:44.983Z,101134.34
2023-05-08T06:21:47.323Z,101140.97
2023-05-08T06:24:53.433Z,101132.25
2023-05-08T06:27:56.283Z,101133.06
2023-05-08T06:30:59.131Z,101130.56
2023-05-08T06:34:01.602Z,101137.31
2023-05-08T06:37:04.336Z,101135.69
2023-05-08T06:43:13.607Z,101138.09
2023-05-08T06:46:16.347Z,101142.41
2023-05-08T06:49:18.959Z,101145.28
2023-05-08T06:52:21.954Z,101147.22
2023-05-08T06:55:24.463Z,101147.75
2023-05-08T06:58:26.692Z,101153.47
2023-05-08T07:01:29.373Z,101151.97
2023-05-08T07:04:32.275Z,101149.31
2023-05-08T07:07:34.833Z,101165.06
2023-05-08T07:10:37.066Z,101158.75
2023-05-08T07:13:39.549Z,101161.94
2023-05-08T07:16:41.898Z,101164.69
2023-05-08T07:19:44.419Z,101157.81
2023-05-08T07:22:46.618Z,101158.94
2023-05-08T07:25:49.888Z,101161.69
2023-05-08T07:28:54.156Z,101163.38
2023-05-08T07:31:56.737Z,101150.81
2023-05-08T07:34:58.944Z,101147.41
2023-05-08T07:38:01.728Z,101153.78
2023-05-08T07:41:05.391Z,101157.16
2023-05-08T07:44:09.621Z,101161.97
2023-05-08T07:47:12.580Z,101157.97
2023-05-08T07:50:15.759Z,101161.12
2023-05-08T07:53:18.117Z,101157.44
2023-05-08T07:56:23.055Z,101165.63
2023-05-08T07:59:25.537Z,101155.31
2023-05-08T08:02:29.300Z,101168.75
2023-05-08T08:05:32.017Z,101163.19
2023-05-08T08:08:34.220Z,101155.53
2023-05-08T08:11:36.706Z,101159.63
2023-05-08T08:14:38.993Z,101160.59
2023-05-08T08:17:41.808Z,101166.84
2023-05-08T08:20:44.833Z,101159.84
2023-05-08T08:23:47.924Z,101157.44
2023-05-08T08:26:50.360Z,101157.25
2023-05-08T08:30:04.536Z,101156.72
2023-05-08T08:33:17.567Z,101152.63
2023-05-08T08:36:21.553Z,101154.16
2023-05-08T08:39:23.874Z,101150.72
2023-05-08T08:42:26.779Z,101150.12
2023-05-08T08:45:29.451Z,101149.03
2023-05-08T08:48:32.219Z,101155.25
2023-05-08T08:51:50.292Z,101150.59
2023-05-08T08:54:55.317Z,101145.41
2023-05-08T08:58:23.039Z,101150.88
2023-05-08T09:01:29.244Z,101143.38
2023-05-08T09:04:32.261Z,101143.69
2023-05-08T09:07:35.768Z,101148.63
2023-05-08T09:10:38.014Z,101143.41
2023-05-08T09:13:41.113Z,101139.25
2023-05-08T09:16:43.796Z,101138.31
2023-05-08T09:19:49.273Z,101134.81
2023-05-08T09:22:52.851Z,101137.97
2023-05-08T09:25:55.401Z,101122.84
2023-05-08T09:29:18.627Z,101133.44
2023-05-08T09:32:21.388Z,101134.44
2023-05-08T09:35:36.478Z,101136.28
2023-05-08T09:38:40.729Z,101131.47
2023-05-08T09:41:57.760Z,101128.41
2023-05-08T09:45:00.297Z,101131.13
2023-05-08T09:48:02.540Z,101126.00
2023-05-08T09:51:08.273Z,101123.97
2023-05-08T09:54:18.061Z,101118.94
2023-05-08T09:57:21.469Z,101124.44
2023-05-08T10:00:25.775Z,101121.81
2023-05-08T10:03:48.387Z,101114.09
2023-05-08T10:07:00.973Z,101112.22
2023-05-08T10:10:05.884Z,101106.53
2023-05-08T10:13:08.226Z,101101.16
2023-05-08T10:16:18.604Z,101113.41
2023-05-08T10:19:24.029Z,101110.28
2023-05-08T10:22:28.582Z,101103.66
2023-05-08T10:25:37.886Z,101096.50
2023-05-08T10:28:49.243Z,101093.00
2023-05-08T10:31:55.498Z,101093.09
2023-05-08T10:35:05.557Z,101084.84
2023-05-08T10:38:09.678Z,101089.12
2023-05-08T10:41:13.667Z,101083.38
2023-05-08T10:44:16.630Z,101084.75
2023-05-08T10:47:37.410Z,101075.66
2023-05-08T10:51:01.682Z,101075.75
2023-05-08T10:54:13.031Z,101070.25
2023-05-08T11:01:03.697Z,101070.47
2023-05-08T11:04:21.780Z,101064.09
2023-05-08T11:07:50.552Z,101070.78
2023-05-08T11:11:07.881Z,101069.53
2023-05-08T11:14:20.226Z,101057.44
2023-05-08T11:17:24.519Z,101047.97
2023-05-08T11:20:55.940Z,101054.41
2023-05-08T11:24:41.124Z,101044.09
2023-05-08T11:27:50.662Z,101043.13
2023-05-08T11:30:56.531Z,101036.44
2023-05-08T11:34:00.173Z,101044.97
2023-05-08T11:37:03.232Z,101040.22
2023-05-08T11:40:26.873Z,101044.09
2023-05-08T11:43:38.304Z,101050.59
2023-05-08T11:46:51.482Z,101049.41
2023-05-08T11:49:55.768Z,101044.94
2023-05-08T11:52:58.433Z,101043.06
2023-05-08T11:56:01.177Z,101035.97
2023-05-08T11:59:04.647Z,101039.66
2023-05-08T12:02:09.600Z,101045.22
2023-05-08T12:05:12.754Z,101041.88
2023-05-08T12:08:17.357Z,101044.06
2023-05-08T12:11:26.692Z,101046.63
2023-05-08T12:14:28.925Z,101044.34
2023-05-08T12:17:31.837Z,101040.13
2023-05-08T12:20:35.533Z,101047.88
2023-05-08T12:23:41.078Z,101046.63
2023-05-08T12:26:43.620Z,101035.69
2023-05-08T12:29:46.809Z,101027.59
2023-05-08T12:32:49.791Z,101029.44
2023-05-08T12:36:16.188Z,101033.44
2023-05-08T12:39:19.284Z,101038.66
2023-05-08T12:42:21.814Z,101041.41
2023-05-08T12:45:29.502Z,101032.31
2023-05-08T12:48:33.156Z,101042.31
2023-05-08T12:51:36.762Z,101046.63
2023-05-08T12:54:45.834Z,101040.47
2023-05-08T12:57:54.141Z,101026.16
2023-05-08T13:01:09.880Z,101048.22
2023-05-08T13:04:12.506Z,101047.56
2023-05-08T13:07:16.288Z,101038.69
2023-05-08T13:10:20.218Z,101044.75
2023-05-08T13:13:28.838Z,101043.75
2023-05-08T13:16:41.442Z,101042.53
2023-05-08T13:19:44.535Z,101034.41
2023-05-08T13:22:46.938Z,101032.88
2023-05-08T13:25:51.433Z,101042.56
2023-05-08T13:28:56.265Z,101037.22
2023-05-08T13:32:01.734Z,101049.12
2023-05-08T13:35:04.622Z,101041.03
2023-05-08T13:38:07.120Z,101036.81
2023-05-08T13:41:09.392Z,101038.34
2023-05-08T13:44:11.884Z,101038.88
2023-05-08T13:47:14.279Z,101036.53
2023-05-08T13:50:19.413Z,101037.00
2023-05-08T13:53:21.629Z,101039.03
2023-05-08T13:56:24.126Z,101036.31
2023-05-08T13:59:27.198Z,101041.38
2023-05-08T14:02:38.450Z,101040.53
2023-05-08T14:05:41.099Z,101039.16
2023-05-08T14:08:46.599Z,101035.91
2023-05-08T14:11:51.233Z,101036.25
2023-05-08T14:14:53.425Z,101042.22
2023-05-08T14:17:55.881Z,101031.00
2023-05-08T14:20:58.090Z,101045.00
2023-05-08T14:24:01.326Z,101035.81
2023-05-08T14:27:05.914Z,101050.31
2023-05-08T14:30:09.064Z,101051.97
2023-05-08T14:33:11.366Z,101042.09
2023-05-08T14:36:14.021Z,101043.78
2023-05-08T14:39:16.166Z,101046.84
2023-05-08T14:42:23.237Z,101050.63
2023-05-08T14:45:25.959Z,101057.53
2023-05-08T14:48:28.545Z,101046.25
2023-05-08T14:51:31.654Z,101043.13
2023-05-08T14:54:34.184Z,101050.09
2023-05-08T14:57:36.492Z,101050.47
2023-05-08T15:00:41.884Z,101046.97
2023-05-08T15:03:47.231Z,101046.28
2023-05-08T15:06:49.871Z,101043.03
2023-05-08T15:09:53.122Z,101041.63
2023-05-08T15:12:55.600Z,101049.78
2023-05-08T15:15:58.398Z,101049.69
2023-05-08T15:19:03.698Z,101050.84
2023-05-08T15:22:06.026Z,101045.84
2023-05-08T15:25:08.583Z,101037.00
2023-05-08T15:28:10.764Z,101043.56
2023-05-08T15:31:13.366Z,101043.47
2023-05-08T15:34:15.640Z,101050.69
2023-05-08T15:37:18.148Z,101044.84
2023-05-08T15:40:20.447Z,101055.38
2023-05-08T15:43:22.933Z,101045.75
2023-05-08T15:46:25.294Z,101048.31
2023-05-08T15:49:27.847Z,101050.19
2023-05-08T15:52:30.099Z,101043.87
2023-05-08T15:55:32.931Z,101048.09
2023-05-08T15:58:36.749Z,101036.41
2023-05-08T16:01:41.665Z,101040.50
2023-05-08T16:04:44.078Z,101042.56
2023-05-08T16:07:46.245Z,101042.88
2023-05-08T16:10:48.865Z,101041.19
2023-05-08T16:13:51.018Z,101042.72
2023-05-08T16:16:53.506Z,101043.19
2023-05-08T16:19:55.723Z,101043.97
2023-05-08T16:22:58.394Z,101050.31
2023-05-08T16:26:00.689Z,101044.19
2023-05-08T16:29:03.133Z,101054.94
2023-05-08T16:32:05.624Z,101058.03
2023-05-08T16:35:08.628Z,101068.50
2023-05-08T16:38:10.924Z,101065.16
2023-05-08T16:41:13.449Z,101070.81
2023-05-08T16:44:15.783Z,101075.38
2023-05-08T16:47:18.283Z,101075.62
2023-05-08T16:50:20.456Z,101079.53
2023-05-08T16:53:22.956Z,101096.12
2023-05-08T16:56:25.230Z,101100.03
2023-05-08T16:59:27.700Z,101102.00
2023-05-08T17:02:30.546Z,101106.06
2023-05-08T17:05:33.584Z,101104.19
2023-05-08T17:08:35.910Z,101120.31
2023-05-08T17:11:38.370Z,101119.22
2023-05-08T17:14:42.737Z,101132.78
2023-05-08T17:17:47.641Z,101129.72
2023-05-08T17:20:50.861Z,101148.22
2023-05-08T17:23:53.281Z,101141.97
2023-05-08T17:26:55.704Z,101154.78
2023-05-08T17:29:58.216Z,101163.94
2023-05-08T17:33:00.579Z,101166.16
2023-05-08T17:36:03.216Z,101174.91
2023-05-08T17:39:05.613Z,101184.12
2023-05-08T17:42:08.361Z,101177.38
2023-05-08T17:45:10.952Z,101187.75
2023-05-08T17:48:14.076Z,101202.06
2023-05-08T17:51:16.336Z,101205.56
2023-05-08T17:54:18.784Z,101221.06
2023-05-08T17:57:21.003Z,101228.84
2023-05-08T18:00:24.832Z,101227.97
2023-05-08T18:03:27.639Z,101235.81
2023-05-08T18:06:29.933Z,101243.00
2023-05-08T18:09:32.897Z,101249.12
2023-05-08T18:12:36.202Z,101253.50
2023-05-08T18:15:42.231Z,101256.69
2023-05-08T18:18:45.065Z,101252.28
2023-05-08T18:21:47.504Z,101267.00
2023-05-08T18:24:50.038Z,101274.56
2023-05-08T18:27:52.591Z,101284.16
2023-05-08T18:30:54.810Z,101288.50
2023-05-08T18:33:57.293Z,101293.50
2023-05-08T18:36:59.486Z,101294.91
2023-05-08T18:40:02.073Z,101310.66
2023-05-08T18:43:04.402Z,101308.31
2023-05-08T18:46:12.538Z,101319.03
2023-05-08T18:49:14.870Z,101322.31
2023-05-08T18:52:17.280Z,101322.09
2023-05-08T18:55:19.448Z,101328.66
2023-05-08T18:58:22.111Z,101341.31
2023-05-08T19:01:24.354Z,101335.03
2023-05-08T19:04:26.916Z,101340.75
2023-05-08T19:07:29.071Z,101336.84
2023-05-08T19:10:31.546Z,101343.41
2023-05-08T19:13:33.864Z,101345.50
2023-05-08T19:16:36.403Z,101353.03
2023-05-08T19:19:38.597Z,101354.16
2023-05-08T19:22:41.049Z,101349.66
2023-05-08T19:25:43.324Z,101347.00
2023-05-08T19:28:45.969Z,101350.72
2023-05-08T19:31:48.239Z,101346.66
2023-05-08T19:34:50.815Z,101354.03
2023-05-08T19:37:53.065Z,101346.38
2023-05-08T19:40:57.549Z,101347.41
2023-05-08T19:44:00.299Z,101348.47
2023-05-08T19:47:04.284Z,101354.91
2023-05-08T19:50:07.658Z,101364.75
2023-05-08T19:53:10.199Z,101367.69
2023-05-08T19:56:12.408Z,101362.09
2023-05-08T19:59:14.886Z,101361.25
2023-05-08T20:02:17.150Z,101366.00
2023-05-08T20:05:22.920Z,101369.50
2023-05-08T20:08:25.649Z,101368.87
2023-05-08T20:11:28.112Z,101365.34
2023-05-08T20:14:30.552Z,101368.00
2023-05-08T20:17:33.041Z,101367.62
2023-05-08T20:20:35.369Z,101369.41
2023-05-08T20:23:39.551Z,101366.94
2023-05-08T20:26:41.724Z,101366.28
2023-05-08T20:29:45.210Z,101361.25
2023-05-08T20:32:47.416Z,101358.59
2023-05-08T20:35:49.899Z,101363.34
2023-05-08T20:38:52.530Z,101368.72
2023-05-08T20:41:55.030Z,101366.25
2023-05-08T20:44:57.185Z,101369.19
2023-05-08T20:47:59.905Z,101365.94
2023-05-08T20:51:02.241Z,101365.09
2023-05-08T20:54:04.751Z,101362.53
2023-05-08T20:57:06.937Z,101367.84
2023-05-08T21:00:09.852Z,101365.47
2023-05-08T21:03:11.978Z,101371.25
2023-05-08T21:06:14.400Z,101366.31
2023-05-08T21:09:16.603Z,101363.47
2023-05-08T21:12:19.021Z,101355.78
2023-05-08T21:15:21.193Z,101361.84
2023-05-08T21:18:23.733Z,101364.41
2023-05-08T21:21:25.967Z,101357.50
2023-05-08T21:24:28.445Z,101358.53
2023-05-08T21:27:30.559Z,101357.00
2023-05-08T21:30:32.971Z,101359.22
2023-05-08T21:33:35.140Z,101358.34
2023-05-08T21:36:37.541Z,101362.78
2023-05-08T21:39:41.461Z,101362.97
2023-05-08T21:42:43.910Z,101362.56
2023-05-08T21:45:46.038Z,101360.69
2023-05-08T21:48:48.567Z,101352.41
2023-05-08T21:51:50.745Z,101352.22
2023-05-08T21:54:53.150Z,101343.88
2023-05-08T21:57:55.311Z,101344.00
2023-05-08T22:00:58.770Z,101348.72
2023-05-08T22:04:01.501Z,101343.88
2023-05-08T22:07:03.731Z,101343.00
2023-05-08T22:10:09.078Z,101340.56
2023-05-08T22:13:12.571Z,101349.47
2023-05-08T22:16:15.160Z,101350.66
2023-05-08T22:19:17.596Z,101350.22
2023-05-08T22:22:20.118Z,101346.22
2023-05-08T22:25:22.631Z,101347.84
2023-05-08T22:28:25.079Z,101345.09
2023-05-08T22:31:27.334Z,101334.19
2023-05-08T22:34:29.869Z,101332.63
2023-05-08T22:37:32.053Z,101320.66
2023-05-08T22:40:34.796Z,101328.69
2023-05-08T22:43:37.286Z,101335.28
2023-05-08T22:46:41.051Z,101343.50
2023-05-08T22:49:43.498Z,101336.56
2023-05-08T22:52:46.053Z,101327.19
2023-05-08T22:55:48.237Z,101330.44
2023-05-08T22:58:50.750Z,101326.41
2023-05-08T23:01:53.576Z,101332.81
2023-05-08T23:04:56.196Z,101333.56
2023-05-08T23:07:58.430Z,101334.34
2023-05-08T23:11:00.869Z,101329.13
2023-05-08T23:14:02.997Z,101330.59
2023-05-08T23:17:05.567Z,101332.72
2023-05-08T23:20:08.507Z,101330.62
2023-05-08T23:23:11.116Z,101326.59
2023-05-08T23:26:13.337Z,101328.06
2023-05-08T23:29:15.850Z,101323.62
2023-05-08T23:32:17.980Z,101312.34
2023-05-08T23:35:20.490Z,101320.38
2023-05-08T23:38:23.473Z,101315.25
2023-05-08T23:41:26.248Z,101317.44
2023-05-08T23:44:28.525Z,101319.94
2023-05-08T23:47:31.400Z,101316.50
2023-05-08T23:50:33.552Z,101316.00
2023-05-08T23:53:36.023Z,101305.56
2023-05-08T23:56:38.204Z,101301.13
2023-05-08T23:59:40.649Z,101299.50
